Time;durP1;ratioP1;P1;durP2;ratioP2;P2;SDS_P1;SDS_P2;PMS_P1;PMS_P2;Temp;Humidity;BMP_temperature;BMP_pressure;BME280_temperature;BME280_humidity;BME280_pressure;Samples;Min_cycle;Max_cycle;Signal;HPM_P1;HPM_P2
2023/06/19 00:01:31;;;;;;;6.47;5.95;;;;;;;20.50;81.50;96313.38;4936635;29;20573;-61
2023/06/19 00:03:58;;;;;;;8.60;5.90;;;;;;;20.43;82.24;96317.94;4939073;29;20207;-61
2023/06/19 00:06:24;;;;;;;6.05;5.55;;;;;;;20.41;82.57;96324.56;4953615;29;20550;-61
2023/06/19 00:08:50;;;;;;;6.53;5.93;;;;;;;20.44;82.41;96324.16;4941486;29;20214;-61
2023/06/19 00:11:17;;;;;;;6.28;5.78;;;;;;;20.39;82.83;96315.88;4955717;29;20246;-62
2023/06/19 00:13:44;;;;;;;6.85;6.35;;;;;;;20.40;83.18;96325.59;4961222;29;20537;-62
2023/06/19 00:16:11;;;;;;;6.15;5.70;;;;;;;20.35;83.14;96326.22;4949244;29;20222;-62
2023/06/19 00:18:39;;;;;;;6.38;5.88;;;;;;;20.37;83.58;96321.47;4961708;29;20238;-61
2023/06/19 00:21:07;;;;;;;6.40;5.82;;;;;;;20.33;83.83;96323.75;4959238;29;20214;-60
2023/06/19 00:23:33;;;;;;;6.30;5.90;;;;;;;20.38;83.19;96336.53;4959501;29;20210;-61
2023/06/19 00:26:00;;;;;;;6.70;6.20;;;;;;;20.35;83.46;96339.66;4959127;29;20265;-62
2023/06/19 00:28:27;;;;;;;6.32;5.82;;;;;;;20.32;84.36;96342.78;4951647;29;20263;-61
2023/06/19 00:30:53;;;;;;;6.13;5.63;;;;;;;20.34;83.41;96335.31;4952845;29;20215;-62
2023/06/19 00:33:20;;;;;;;6.35;5.95;;;;;;;20.36;83.99;96346.69;4948350;29;20640;-61
2023/06/19 00:35:48;;;;;;;6.72;6.22;;;;;;;20.37;84.21;96352.88;4958963;29;20206;-61
2023/06/19 00:38:14;;;;;;;6.32;5.82;;;;;;;20.38;84.07;96358.03;4952721;28;20242;-62
2023/06/19 00:40:41;;;;;;;6.47;5.97;;;;;;;20.41;83.89;96354.09;4958578;29;20270;-62
2023/06/19 00:43:07;;;;;;;6.50;5.90;;;;;;;20.41;84.11;96346.88;4958930;29;20229;-63
2023/06/19 00:45:34;;;;;;;6.75;6.15;;;;;;;20.51;83.24;96349.13;4959530;29;20214;-61
2023/06/19 00:48:01;;;;;;;6.47;5.97;;;;;;;20.56;84.20;96363.56;4960247;29;20218;-61
2023/06/19 00:50:29;;;;;;;6.45;5.95;;;;;;;20.61;84.88;96366.44;4963151;29;20545;-61
2023/06/19 00:52:57;;;;;;;7.00;6.40;;;;;;;20.64;84.76;96386.69;4959533;29;20627;-61
2023/06/19 00:55:27;;;;;;;7.03;6.43;;;;;;;20.61;84.88;96373.69;4958905;29;20210;-61
2023/06/19 00:57:53;;;;;;;6.72;6.00;;;;;;;20.60;85.15;96378.22;4958288;28;20671;-61
2023/06/19 01:00:19;;;;;;;7.00;6.50;;;;;;;20.67;84.88;96372.81;4941653;29;20226;-62
2023/06/19 01:02:47;;;;;;;7.60;6.95;;;;;;;20.67;84.09;96379.03;4939626;29;20215;-61
2023/06/19 01:05:14;;;;;;;7.20;6.50;;;;;;;20.72;83.90;96375.72;4953597;29;20207;-61
2023/06/19 01:07:45;;;;;;;6.70;6.20;;;;;;;20.71;84.23;96377.56;4953494;29;20215;-62
2023/06/19 01:10:16;;;;;;;7.40;6.70;;;;;;;20.71;85.24;96377.56;4959840;28;20241;-62
2023/06/19 01:12:50;;;;;;;7.05;6.47;;;;;;;20.72;84.52;96375.72;4960655;29;20239;-62
2023/06/19 01:15:17;;;;;;;7.28;6.75;;;;;;;20.74;84.49;96374.44;4953998;28;20217;-61
2023/06/19 01:17:44;;;;;;;6.68;6.18;;;;;;;20.78;84.65;96373.00;4955531;29;20266;-61
2023/06/19 01:20:11;;;;;;;6.88;6.28;;;;;;;20.76;85.42;96366.19;4958612;29;20217;-61
2023/06/19 01:22:39;;;;;;;6.93;6.30;;;;;;;20.77;85.53;96365.13;4958450;29;20218;-63
2023/06/19 01:25:07;;;;;;;6.93;6.32;;;;;;;20.80;84.92;96383.50;4958350;29;20278;-62
2023/06/19 01:27:33;;;;;;;6.60;6.10;;;;;;;20.84;84.13;96390.13;4958386;29;20210;-62
2023/06/19 01:30:00;;;;;;;6.47;6.03;;;;;;;20.89;84.44;96394.88;4957729;29;20222;-61
2023/06/19 01:32:31;;;;;;;7.00;6.50;;;;;;;20.87;83.67;96388.88;4958177;29;20210;-61
2023/06/19 01:34:59;;;;;;;6.45;5.95;;;;;;;20.92;83.04;96383.69;4958149;29;20282;-61
2023/06/19 01:37:27;;;;;;;6.40;5.80;;;;;;;20.94;82.93;96387.00;4950923;29;20203;-61
2023/06/19 01:39:55;;;;;;;6.05;5.60;;;;;;;20.94;83.86;96411.19;4957954;29;20234;-62
2023/06/19 01:42:22;;;;;;;6.72;6.25;;;;;;;20.92;82.92;96429.38;4958183;29;20211;-61
2023/06/19 01:44:48;;;;;;;6.10;5.68;;;;;;;20.97;83.16;96429.56;4958058;28;20225;-62
2023/06/19 01:47:19;;;;;;;6.55;6.15;;;;;;;21.01;82.39;96444.25;4957262;29;20207;-62
2023/06/19 01:49:46;;;;;;;5.75;5.35;;;;;;;21.08;80.86;96453.13;4948956;29;20281;-61
2023/06/19 01:52:12;;;;;;;6.50;5.93;;;;;;;21.14;77.14;96454.97;4957689;29;20218;-61
2023/06/19 01:54:38;;;;;;;6.32;5.85;;;;;;;21.19;77.24;96465.91;4957649;29;20650;-61
2023/06/19 01:57:07;;;;;;;6.75;6.25;;;;;;;21.23;76.76;96480.56;4957470;28;20206;-61
2023/06/19 01:59:33;;;;;;;7.25;6.65;;;;;;;21.32;77.32;96482.84;4947061;29;20250;-61
2023/06/19 02:02:00;;;;;;;8.13;7.38;;;;;;;21.32;78.98;96473.94;4945735;29;20207;-61
2023/06/19 02:04:26;;;;;;;7.70;7.10;;;;;;;21.34;80.06;96471.84;4949098;29;20589;-61
2023/06/19 02:06:54;;;;;;;8.18;7.38;;;;;;;21.25;86.37;96471.28;4957908;29;20207;-61
2023/06/19 02:09:20;;;;;;;8.52;7.72;;;;;;;21.07;92.09;96486.41;4957644;29;20221;-61
2023/06/19 02:11:47;;;;;;;8.90;8.10;;;;;;;20.90;95.87;96485.22;4956304;29;20257;-62
2023/06/19 02:14:15;;;;;;;8.18;7.35;;;;;;;20.72;97.83;96483.22;4957396;29;20207;-61
2023/06/19 02:16:43;;;;;;;8.00;7.40;;;;;;;20.52;100.00;96482.41;4956575;29;20210;-61
2023/06/19 02:19:10;;;;;;;8.80;7.93;;;;;;;20.45;100.00;96487.78;4957282;29;20235;-61
2023/06/19 02:21:38;;;;;;;9.20;8.23;;;;;;;20.41;100.00;96497.28;4956882;29;20218;-60
2023/06/19 02:24:05;;;;;;;10.55;8.43;;;;;;;20.15;100.00;96502.63;4957355;29;20221;-61
2023/06/19 02:26:32;;;;;;;12.25;9.80;;;;;;;20.11;100.00;96507.59;4956169;28;20270;-61
2023/06/19 02:28:58;;;;;;;11.85;9.63;;;;;;;20.03;100.00;96494.38;4956965;29;20199;-61
2023/06/19 02:31:26;;;;;;;9.55;8.52;;;;;;;19.73;100.00;96498.47;4956762;29;20214;-61
2023/06/19 02:33:52;;;;;;;10.43;8.50;;;;;;;19.62;100.00;96502.56;4957312;29;20222;-62
2023/06/19 02:36:19;;;;;;;10.07;9.18;;;;;;;19.64;100.00;96515.75;4956490;29;20711;-60
2023/06/19 02:38:46;;;;;;;9.80;9.00;;;;;;;19.52;100.00;96517.41;4956576;28;20230;-61
2023/06/19 02:41:12;;;;;;;9.77;8.82;;;;;;;19.54;100.00;96501.91;4956866;29;20218;-61
2023/06/19 02:43:40;;;;;;;9.90;9.10;;;;;;;19.43;100.00;96510.53;4957126;29;20282;-61
2023/06/19 02:46:09;;;;;;;10.25;9.02;;;;;;;19.34;100.00;96512.56;4939229;29;20609;-60
2023/06/19 02:48:37;;;;;;;9.88;8.93;;;;;;;19.33;100.00;96517.09;4957159;29;20220;-60
2023/06/19 02:51:03;;;;;;;10.05;9.07;;;;;;;19.35;100.00;96519.56;4955693;29;20214;-61
2023/06/19 02:53:30;;;;;;;10.93;9.82;;;;;;;19.39;100.00;96518.13;4956890;29;20214;-61
2023/06/19 02:55:56;;;;;;;9.25;8.45;;;;;;;19.41;100.00;96520.63;4958839;29;20236;-61
2023/06/19 02:58:23;;;;;;;10.63;9.73;;;;;;;19.41;100.00;96513.44;4975992;29;20226;-60
2023/06/19 03:00:50;;;;;;;10.48;9.48;;;;;;;19.43;100.00;96511.38;4954887;29;20257;-61
2023/06/19 03:03:17;;;;;;;10.15;9.15;;;;;;;19.47;100.00;96509.13;4945575;29;20218;-61
2023/06/19 03:05:45;;;;;;;10.18;9.35;;;;;;;19.47;100.00;96504.59;4937710;29;20648;-61
2023/06/19 03:08:11;;;;;;;10.82;9.75;;;;;;;19.45;100.00;96517.34;4937558;29;20652;-60
2023/06/19 03:10:38;;;;;;;9.98;9.02;;;;;;;19.50;100.00;96514.06;4945542;29;20238;-61
2023/06/19 03:13:04;;;;;;;10.55;9.55;;;;;;;19.49;100.00;96521.28;4955599;29;20234;-61
2023/06/19 03:15:31;;;;;;;10.50;9.63;;;;;;;19.42;100.00;96533.00;4956267;29;20214;-61
2023/06/19 03:17:58;;;;;;;21.90;9.38;;;;;;;19.43;100.00;96535.50;4956118;29;20212;-61
2023/06/19 03:20:24;;;;;;;10.00;9.10;;;;;;;19.43;100.00;96542.72;4956539;29;20219;-61
2023/06/19 03:22:52;;;;;;;10.55;9.75;;;;;;;19.35;100.00;96543.69;4956270;29;20210;-61
2023/06/19 03:25:19;;;;;;;9.95;9.10;;;;;;;19.37;100.00;96553.22;4956403;29;20221;-60
2023/06/19 03:27:46;;;;;;;10.35;9.55;;;;;;;19.35;100.00;96555.25;4956136;29;20293;-60
2023/06/19 03:30:12;;;;;;;10.10;9.23;;;;;;;19.38;100.00;96560.22;4955714;29;20572;-61
2023/06/19 03:32:39;;;;;;;9.82;9.13;;;;;;;19.39;100.00;96561.03;4956385;29;20317;-60
2023/06/19 03:35:06;;;;;;;10.85;9.95;;;;;;;19.42;100.00;96571.38;4956184;29;20229;-61
2023/06/19 03:37:33;;;;;;;9.82;9.02;;;;;;;19.38;100.00;96572.78;4956033;28;20360;-62
2023/06/19 03:40:01;;;;;;;10.48;9.40;;;;;;;19.41;100.00;96568.91;4960073;29;20230;-61
2023/06/19 03:42:28;;;;;;;9.52;8.82;;;;;;;19.40;100.00;96557.34;4960097;29;20273;-61
2023/06/19 03:44:54;;;;;;;9.45;8.75;;;;;;;19.40;100.00;96557.34;4960083;29;20214;-62
2023/06/19 03:47:22;;;;;;;9.57;8.80;;;;;;;19.38;100.00;96564.75;4960030;29;20210;-60
2023/06/19 03:49:49;;;;;;;9.45;8.50;;;;;;;19.32;100.00;96569.06;4956410;29;20643;-61
2023/06/19 03:52:15;;;;;;;8.70;8.10;;;;;;;19.32;100.00;96573.59;4960042;29;20246;-61
2023/06/19 03:54:43;;;;;;;8.52;7.93;;;;;;;19.28;100.00;96581.19;4960229;29;20210;-62
2023/06/19 03:57:11;;;;;;;8.60;8.00;;;;;;;19.29;100.00;96582.03;4959256;28;20254;-62
2023/06/19 03:59:37;;;;;;;8.55;7.95;;;;;;;19.23;100.00;96585.50;4940885;29;20222;-62
2023/06/19 04:02:04;;;;;;;9.30;8.50;;;;;;;19.20;100.00;96585.91;4952771;29;20214;-62
2023/06/19 04:04:30;;;;;;;8.25;7.65;;;;;;;19.18;100.00;96596.81;4952907;29;20635;-58
2023/06/19 04:06:58;;;;;;;9.38;8.57;;;;;;;19.20;100.00;96602.81;4942295;29;20222;-59
2023/06/19 04:09:25;;;;;;;9.07;8.38;;;;;;;19.18;100.00;96596.00;4940757;29;20218;-58
2023/06/19 04:11:53;;;;;;;9.45;8.65;;;;;;;19.12;100.00;96604.84;4925031;29;20567;-59
2023/06/19 04:14:22;;;;;;;9.27;8.48;;;;;;;19.10;100.00;96614.91;4947388;29;20218;-59
2023/06/19 04:16:50;;;;;;;9.40;8.68;;;;;;;19.12;100.00;96613.72;4940167;29;20211;-59
2023/06/19 04:19:17;;;;;;;8.93;8.05;;;;;;;19.18;100.00;96628.16;4940704;29;20230;-58
2023/06/19 04:21:43;;;;;;;8.68;7.93;;;;;;;19.24;100.00;96619.31;4940302;29;20663;-57
2023/06/19 04:24:10;;;;;;;9.50;8.40;;;;;;;19.19;100.00;96627.97;4947162;29;20602;-59
2023/06/19 04:26:37;;;;;;;11.45;10.55;;;;;;;19.25;100.00;96623.66;4946617;29;20262;-57
2023/06/19 04:29:06;;;;;;;10.93;9.98;;;;;;;19.25;100.00;96623.66;4958104;29;20297;-59
2023/06/19 04:31:40;;;;;;;8.68;7.93;;;;;;;19.22;100.00;96624.06;4929824;29;20584;-57
2023/06/19 04:34:08;;;;;;;10.45;8.35;;;;;;;19.22;100.00;96624.06;4952136;29;20300;-58
2023/06/19 04:36:36;;;;;;;8.82;8.02;;;;;;;19.23;100.00;96615.84;4947412;29;20537;-61
2023/06/19 04:39:05;;;;;;;8.55;7.82;;;;;;;19.23;100.00;96617.69;4941332;29;20236;-62
2023/06/19 04:41:32;;;;;;;8.55;7.75;;;;;;;19.26;100.00;96620.81;4949377;29;20219;-62
2023/06/19 04:43:58;;;;;;;8.75;8.05;;;;;;;19.20;100.00;96612.72;4942245;29;21201;-61
2023/06/19 04:46:27;;;;;;;9.63;8.43;;;;;;;19.19;100.00;96614.56;4939592;29;20207;-61
2023/06/19 04:48:57;;;;;;;8.40;7.60;;;;;;;19.18;100.00;96612.91;4952603;29;20215;-61
2023/06/19 04:51:26;;;;;;;8.40;7.60;;;;;;;19.13;100.00;96625.25;4938684;29;20223;-61
2023/06/19 04:53:52;;;;;;;7.70;7.00;;;;;;;19.14;100.00;96624.22;4956346;29;20599;-61
2023/06/19 04:56:19;;;;;;;7.80;7.10;;;;;;;19.08;100.00;96630.38;4958142;29;20578;-61
2023/06/19 04:58:49;;;;;;;8.45;7.75;;;;;;;19.09;100.00;96629.34;4954396;28;20214;-61
2023/06/19 05:01:16;;;;;;;8.68;6.70;;;;;;;19.11;100.00;96624.63;4932478;29;20537;-61
2023/06/19 05:03:45;;;;;;;7.57;6.88;;;;;;;19.06;100.00;96621.72;4940023;29;20286;-61
2023/06/19 05:06:13;;;;;;;7.57;6.75;;;;;;;19.05;100.00;96620.03;4939881;29;20211;-61
2023/06/19 05:08:39;;;;;;;7.28;6.60;;;;;;;19.05;100.00;96620.88;4954091;29;20246;-62
2023/06/19 05:11:05;;;;;;;6.55;5.97;;;;;;;18.94;100.00;96605.34;4961415;29;20211;-62
2023/06/19 05:13:32;;;;;;;7.30;6.60;;;;;;;19.02;100.00;96601.69;4959768;29;20671;-62
2023/06/19 05:15:59;;;;;;;8.02;7.25;;;;;;;18.97;100.00;96604.09;4964841;29;20210;-61
2023/06/19 05:18:25;;;;;;;7.88;6.40;;;;;;;18.90;100.00;96593.34;4959887;29;20666;-61
2023/06/19 05:20:51;;;;;;;6.57;6.07;;;;;;;18.93;100.00;96592.13;4958770;29;20577;-61
2023/06/19 05:23:20;;;;;;;7.10;6.45;;;;;;;18.94;100.00;96597.28;4947594;29;20217;-61
2023/06/19 05:25:47;;;;;;;7.28;6.57;;;;;;;18.96;100.00;96600.59;4959925;29;20214;-61
2023/06/19 05:28:14;;;;;;;7.63;6.18;;;;;;;18.89;100.00;96597.88;4958324;29;20632;-62
2023/06/19 05:30:40;;;;;;;6.75;6.22;;;;;;;18.91;100.00;96596.88;4957588;29;20644;-61
2023/06/19 05:33:08;;;;;;;6.90;6.40;;;;;;;18.91;100.00;96592.34;4958216;29;20217;-62
2023/06/19 05:35:34;;;;;;;7.35;6.85;;;;;;;18.94;100.00;96593.78;4957985;29;20313;-65
2023/06/19 05:38:01;;;;;;;8.00;7.30;;;;;;;18.98;100.00;96584.34;4956404;28;20567;-62
2023/06/19 05:40:29;;;;;;;7.25;6.65;;;;;;;18.99;100.00;96577.97;4965736;28;20245;-62
2023/06/19 05:42:56;;;;;;;7.57;6.97;;;;;;;19.01;100.00;96583.94;4959390;29;20238;-62
2023/06/19 05:45:22;;;;;;;7.57;7.00;;;;;;;18.97;100.00;96577.31;4958376;29;20248;-63
2023/06/19 05:47:49;;;;;;;7.88;7.13;;;;;;;18.89;100.00;96581.81;4958925;29;20226;-62
2023/06/19 05:50:15;;;;;;;10.43;7.82;;;;;;;18.86;100.00;96573.31;4961572;29;20217;-62
2023/06/19 05:52:43;;;;;;;7.90;7.13;;;;;;;18.91;100.00;96575.44;4960493;29;20523;-63
2023/06/19 05:55:09;;;;;;;8.00;7.20;;;;;;;18.93;100.00;96573.38;4947083;29;20211;-61
2023/06/19 05:57:40;;;;;;;8.20;6.93;;;;;;;18.99;100.00;96569.91;4945882;28;20218;-62
2023/06/19 06:00:13;;;;;;;8.02;7.30;;;;;;;19.03;100.00;96571.97;4942864;29;20222;-62
2023/06/19 06:02:40;;;;;;;8.27;7.63;;;;;;;19.03;100.00;96555.06;4938856;29;20211;-61
2023/06/19 06:05:09;;;;;;;7.60;6.90;;;;;;;19.11;100.00;96552.25;4938396;29;20230;-62
2023/06/19 06:07:36;;;;;;;7.40;6.88;;;;;;;19.17;100.00;96556.78;4939600;29;20211;-62
2023/06/19 06:10:03;;;;;;;8.13;7.53;;;;;;;19.24;100.00;96545.09;4939319;29;20203;-62
2023/06/19 06:12:30;;;;;;;9.15;8.35;;;;;;;19.14;100.00;96546.47;4951442;29;20231;-62
2023/06/19 06:14:58;;;;;;;8.25;7.45;;;;;;;19.12;100.00;96548.53;4942579;29;20207;-62
2023/06/19 06:17:24;;;;;;;9.35;8.20;;;;;;;19.13;100.00;96550.19;4941387;29;20215;-62
2023/06/19 06:19:50;;;;;;;8.73;8.02;;;;;;;19.25;100.00;96543.22;4941022;29;20318;-63
2023/06/19 06:22:18;;;;;;;7.68;7.13;;;;;;;19.35;100.00;96544.53;4922622;29;20215;-62
2023/06/19 06:24:46;;;;;;;9.15;8.25;;;;;;;19.44;100.00;96553.25;4938267;29;20215;-62
2023/06/19 06:27:13;;;;;;;7.68;7.10;;;;;;;19.55;100.00;96552.69;4930804;29;20298;-62
2023/06/19 06:29:40;;;;;;;7.78;7.18;;;;;;;19.65;100.00;96553.13;4938641;29;20207;-62
2023/06/19 06:32:09;;;;;;;8.25;7.60;;;;;;;19.74;100.00;96559.97;4937806;29;20214;-62
2023/06/19 06:34:35;;;;;;;7.90;7.40;;;;;;;19.87;100.00;96569.91;4938240;29;20218;-62
2023/06/19 06:37:02;;;;;;;8.65;7.95;;;;;;;19.99;100.00;96567.44;4947667;29;20290;-62
2023/06/19 06:39:31;;;;;;;8.70;8.00;;;;;;;20.06;100.00;96565.59;4941979;29;20211;-62
2023/06/19 06:41:57;;;;;;;7.32;6.82;;;;;;;20.10;100.00;96570.38;4940359;29;20270;-61
2023/06/19 06:44:24;;;;;;;7.88;7.28;;;;;;;20.20;100.00;96567.28;4938229;29;20218;-62
2023/06/19 06:46:50;;;;;;;9.50;8.65;;;;;;;20.25;100.00;96570.19;4937683;29;20211;-62
2023/06/19 06:49:18;;;;;;;7.93;7.32;;;;;;;20.40;100.00;96576.22;4943097;29;20643;-62
2023/06/19 06:51:45;;;;;;;9.15;8.38;;;;;;;20.38;100.00;96575.59;4944780;29;20215;-63
2023/06/19 06:54:12;;;;;;;8.20;7.53;;;;;;;20.64;100.00;96575.63;4956593;29;20261;-62
2023/06/19 06:56:38;;;;;;;7.63;7.13;;;;;;;20.89;100.00;96569.59;4956968;29;20222;-62
2023/06/19 06:59:05;;;;;;;7.32;6.70;;;;;;;21.14;100.00;96570.63;4949799;28;20211;-62
2023/06/19 07:01:31;;;;;;;7.18;6.70;;;;;;;21.34;100.00;96563.31;4937265;29;20259;-62
2023/06/19 07:03:58;;;;;;;8.48;7.68;;;;;;;21.46;100.00;96566.16;4937670;29;20238;-63
2023/06/19 07:06:25;;;;;;;7.35;6.65;;;;;;;21.62;100.00;96563.81;4937414;29;20238;-63
2023/06/19 07:08:52;;;;;;;6.88;6.20;;;;;;;21.85;100.00;96568.69;4937401;29;20230;-62
2023/06/19 07:11:19;;;;;;;7.05;6.45;;;;;;;22.00;100.00;96568.44;4936950;29;20207;-62
2023/06/19 07:13:45;;;;;;;7.15;6.65;;;;;;;22.21;100.00;96562.69;4948342;28;20680;-63
2023/06/19 07:16:12;;;;;;;7.10;6.60;;;;;;;22.27;100.00;96553.75;4937647;29;20632;-63
2023/06/19 07:18:40;;;;;;;7.30;6.80;;;;;;;22.16;100.00;96551.75;4949435;29;20648;-62
2023/06/19 07:21:12;;;;;;;8.10;6.82;;;;;;;22.31;100.00;96560.34;4947031;29;20230;-62
2023/06/19 07:23:40;;;;;;;6.97;6.47;;;;;;;22.37;100.00;96547.84;4960704;29;20593;-62
2023/06/19 07:26:06;;;;;;;6.53;6.03;;;;;;;22.47;100.00;96542.81;4944296;29;20227;-62
2023/06/19 07:28:35;;;;;;;6.95;6.40;;;;;;;22.57;100.00;96543.97;4937762;29;20225;-61
2023/06/19 07:31:02;;;;;;;6.13;5.63;;;;;;;22.67;100.00;96533.53;4936705;29;20207;-62
2023/06/19 07:33:29;;;;;;;7.25;6.70;;;;;;;22.77;100.00;96535.75;4937529;29;20226;-63
2023/06/19 07:35:55;;;;;;;7.32;6.78;;;;;;;22.92;100.00;96530.00;4949967;29;20240;-62
2023/06/19 07:38:22;;;;;;;7.13;6.57;;;;;;;23.04;100.00;96526.31;4944349;29;20199;-63
2023/06/19 07:40:50;;;;;;;7.00;6.50;;;;;;;22.93;100.00;96521.66;4937002;29;20230;-62
2023/06/19 07:43:17;;;;;;;7.65;6.95;;;;;;;23.01;100.00;96517.84;4937082;29;20214;-63
2023/06/19 07:45:43;;;;;;;7.60;7.03;;;;;;;23.09;100.00;96507.59;4936833;29;20522;-62
2023/06/19 07:48:11;;;;;;;7.32;6.82;;;;;;;23.18;100.00;96508.94;4937270;29;20222;-62
2023/06/19 07:50:37;;;;;;;8.35;7.65;;;;;;;22.94;100.00;96519.81;4937174;29;20219;-61
2023/06/19 07:53:04;;;;;;;8.10;7.50;;;;;;;23.07;100.00;96506.16;4937032;29;20274;-62
2023/06/19 07:55:30;;;;;;;8.30;7.65;;;;;;;23.56;100.00;96516.00;4942907;29;20270;-62
2023/06/19 07:57:58;;;;;;;8.00;7.30;;;;;;;23.83;100.00;96514.59;4946427;29;20214;-61
2023/06/19 08:00:25;;;;;;;8.07;7.53;;;;;;;24.13;100.00;96509.19;4938016;29;20663;-62
2023/06/19 08:02:51;;;;;;;7.80;7.10;;;;;;;24.54;100.00;96509.16;4937275;29;20217;-63
2023/06/19 08:05:18;;;;;;;8.52;7.85;;;;;;;24.93;100.00;96499.56;4941737;29;20359;-62
2023/06/19 08:07:45;;;;;;;7.40;6.90;;;;;;;25.27;100.00;96505.97;4945433;29;20222;-62
2023/06/19 08:10:12;;;;;;;8.40;7.70;;;;;;;25.51;93.11;96501.34;4924980;29;20210;-62
2023/06/19 08:12:38;;;;;;;9.68;7.63;;;;;;;25.74;92.74;96499.41;4942581;29;20306;-63
2023/06/19 08:15:08;;;;;;;8.02;7.43;;;;;;;25.65;91.52;96500.00;4931753;29;20215;-62
2023/06/19 08:17:36;;;;;;;8.60;7.72;;;;;;;25.95;92.50;96507.91;4917963;29;20212;-62
2023/06/19 08:20:05;;;;;;;8.52;7.63;;;;;;;26.08;94.25;96502.16;4917773;29;20546;-62
2023/06/19 08:22:31;;;;;;;8.98;7.97;;;;;;;26.32;90.48;96506.44;4917857;29;20565;-63
2023/06/19 08:24:58;;;;;;;8.63;7.75;;;;;;;26.17;84.01;96512.44;4919545;29;20219;-61
2023/06/19 08:27:24;;;;;;;8.02;7.43;;;;;;;26.58;91.72;96508.50;4921589;29;20272;-62
2023/06/19 08:29:51;;;;;;;8.45;7.60;;;;;;;26.85;84.03;96513.28;4921392;29;20216;-61
2023/06/19 08:32:22;;;;;;;7.78;7.13;;;;;;;26.98;85.04;96518.38;4934737;29;20226;-61
2023/06/19 08:34:48;;;;;;;8.48;7.63;;;;;;;26.81;88.18;96509.41;4922167;29;20219;-62
2023/06/19 08:37:15;;;;;;;8.13;7.45;;;;;;;26.84;89.74;96509.75;4934181;29;20235;-61
2023/06/19 08:39:41;;;;;;;8.30;7.60;;;;;;;27.18;88.99;96515.94;4922150;29;20629;-61
2023/06/19 08:42:08;;;;;;;7.53;6.90;;;;;;;27.27;84.16;96517.16;4938429;29;20238;-62
2023/06/19 08:44:37;;;;;;;7.90;6.82;;;;;;;27.08;84.99;96510.34;4934729;29;20645;-62
2023/06/19 08:47:04;;;;;;;8.30;6.75;;;;;;;27.28;85.69;96510.63;4921923;29;20223;-62
2023/06/19 08:49:33;;;;;;;7.45;6.85;;;;;;;27.18;85.44;96507.78;4923137;29;20215;-62
2023/06/19 08:52:02;;;;;;;7.00;6.25;;;;;;;27.38;84.03;96509.97;4924849;29;20294;-61
2023/06/19 08:54:28;;;;;;;8.18;7.47;;;;;;;27.32;83.12;96511.78;4941949;29;20686;-61
2023/06/19 08:56:55;;;;;;;7.43;6.72;;;;;;;27.19;83.35;96506.72;4929124;29;20207;-61
2023/06/19 08:59:21;;;;;;;8.20;7.38;;;;;;;26.83;82.54;96510.81;4942900;29;20211;-61
2023/06/19 09:01:51;;;;;;;7.60;7.00;;;;;;;26.63;87.85;96511.31;4921986;29;20672;-61
2023/06/19 09:04:19;;;;;;;7.90;7.30;;;;;;;26.81;85.38;96512.94;4920833;29;20226;-61
2023/06/19 09:06:51;;;;;;;7.40;6.88;;;;;;;27.05;84.54;96510.88;4920797;29;20244;-62
2023/06/19 09:09:18;;;;;;;8.50;7.90;;;;;;;26.78;83.79;96504.47;4920867;29;20219;-62
2023/06/19 09:11:44;;;;;;;6.88;6.28;;;;;;;26.95;83.35;96502.59;4943715;29;20239;-62
2023/06/19 09:14:11;;;;;;;8.07;7.25;;;;;;;27.22;84.60;96503.50;4944787;29;20211;-61
2023/06/19 09:16:39;;;;;;;7.93;7.22;;;;;;;27.34;84.73;96498.78;4943020;29;20213;-61
2023/06/19 09:19:06;;;;;;;7.57;6.88;;;;;;;27.42;85.62;96503.75;4948553;29;20250;-62
2023/06/19 09:21:32;;;;;;;7.70;6.82;;;;;;;27.69;84.35;96501.16;4939537;29;20227;-61
2023/06/19 09:24:05;;;;;;;8.32;7.55;;;;;;;27.67;79.71;96504.09;4939261;29;20222;-61
2023/06/19 09:26:32;;;;;;;7.93;7.32;;;;;;;27.52;82.84;96495.78;4939398;29;20233;-61
2023/06/19 09:28:59;;;;;;;10.40;7.75;;;;;;;27.65;80.86;96500.84;4939576;29;20221;-62
2023/06/19 09:31:33;;;;;;;7.93;7.25;;;;;;;27.79;82.46;96500.44;4951183;29;20419;-61
2023/06/19 09:33:59;;;;;;;8.43;7.57;;;;;;;27.79;79.65;96501.25;4953608;28;20214;-62
2023/06/19 09:36:27;;;;;;;9.25;8.52;;;;;;;27.65;79.88;96492.69;4957928;28;20211;-61
2023/06/19 09:38:55;;;;;;;8.55;7.85;;;;;;;27.78;81.07;96494.16;4945739;29;20289;-60
2023/06/19 09:41:24;;;;;;;8.40;7.63;;;;;;;27.98;78.86;96485.44;4939137;29;20235;-60
2023/06/19 09:43:54;;;;;;;8.50;7.80;;;;;;;28.18;80.52;96482.94;4939157;29;20246;-60
2023/06/19 09:46:21;;;;;;;8.48;7.88;;;;;;;28.27;78.65;96486.81;4938795;29;20207;-61
2023/06/19 09:48:49;;;;;;;8.20;7.55;;;;;;;28.50;80.91;96488.38;4939066;29;20215;-61
2023/06/19 09:51:19;;;;;;;9.32;8.13;;;;;;;28.72;74.53;96493.75;4947016;29;20211;-62
2023/06/19 09:53:47;;;;;;;8.98;8.27;;;;;;;28.63;74.65;96479.75;4943489;29;20215;-62
2023/06/19 09:56:14;;;;;;;8.55;7.93;;;;;;;28.49;75.87;96476.66;4944751;29;20211;-61
2023/06/19 09:58:43;;;;;;;9.02;8.27;;;;;;;28.53;76.74;96474.25;4950200;28;20203;-61
2023/06/19 10:01:11;;;;;;;9.75;8.10;;;;;;;28.57;78.38;96465.31;4938502;29;20323;-62
2023/06/19 10:03:37;;;;;;;9.27;8.43;;;;;;;28.51;75.03;96460.91;4951566;29;20225;-62
2023/06/19 10:06:05;;;;;;;8.23;7.53;;;;;;;28.84;75.43;96456.28;4938843;29;20218;-61
2023/06/19 10:08:39;;;;;;;8.65;7.95;;;;;;;28.88;77.77;96457.38;4938376;29;20622;-61
2023/06/19 10:11:07;;;;;;;8.05;7.45;;;;;;;29.26;74.15;96451.66;4938257;29;20678;-62
2023/06/19 10:13:36;;;;;;;8.70;8.00;;;;;;;29.44;72.74;96453.88;4950698;29;20230;-62
2023/06/19 10:16:04;;;;;;;9.10;8.35;;;;;;;29.33;71.79;96451.41;4938125;29;20271;-61
2023/06/19 10:18:33;;;;;;;8.10;7.40;;;;;;;29.56;72.35;96446.31;4938541;29;20211;-62
2023/06/19 10:21:01;;;;;;;8.70;8.00;;;;;;;29.42;69.63;96453.34;4938306;29;20604;-61
2023/06/19 10:23:28;;;;;;;8.00;7.30;;;;;;;29.82;70.28;96446.38;4938351;29;20215;-62
2023/06/19 10:25:59;;;;;;;7.43;6.78;;;;;;;29.96;69.63;96440.16;4937774;29;20637;-61
2023/06/19 10:28:27;;;;;;;7.22;6.63;;;;;;;29.77;68.52;96446.34;4938554;29;20243;-61
2023/06/19 10:30:55;;;;;;;6.97;6.57;;;;;;;29.84;66.65;96444.19;4937577;29;20218;-61
2023/06/19 10:33:23;;;;;;;7.57;6.97;;;;;;;30.00;67.60;96445.91;4938317;29;20222;-61
2023/06/19 10:35:53;;;;;;;7.57;7.00;;;;;;;30.18;67.64;96442.66;4938169;29;20222;-62
2023/06/19 10:38:19;;;;;;;6.88;6.38;;;;;;;30.18;64.41;96437.19;4945562;29;20539;-61
2023/06/19 10:40:47;;;;;;;7.78;7.03;;;;;;;29.69;65.51;96436.00;4938261;29;20242;-61
2023/06/19 10:43:14;;;;;;;7.55;6.85;;;;;;;29.83;66.13;96439.84;4939779;29;20207;-62
2023/06/19 10:45:42;;;;;;;7.88;7.10;;;;;;;29.93;66.02;96428.97;4950534;29;20225;-62
2023/06/19 10:48:12;;;;;;;7.00;6.50;;;;;;;30.07;66.27;96430.91;4920474;29;20656;-63
2023/06/19 10:50:43;;;;;;;7.18;6.57;;;;;;;30.17;64.53;96427.38;4938232;29;20235;-64
2023/06/19 10:53:09;;;;;;;7.70;7.20;;;;;;;30.27;62.80;96427.38;4938107;29;20250;-61
2023/06/19 10:55:36;;;;;;;7.60;6.93;;;;;;;30.46;61.25;96428.50;4950103;29;20214;-62
2023/06/19 10:58:02;;;;;;;7.32;6.70;;;;;;;30.27;60.90;96419.19;4938471;29;20230;-62
2023/06/19 11:00:31;;;;;;;7.05;6.50;;;;;;;30.35;62.62;96421.38;4937320;29;20579;-63
2023/06/19 11:02:58;;;;;;;7.20;6.70;;;;;;;30.68;62.62;96419.19;4937849;29;20218;-62
2023/06/19 11:05:25;;;;;;;6.70;6.28;;;;;;;30.46;58.35;96417.59;4937479;29;20214;-63
2023/06/19 11:07:57;;;;;;;6.65;6.20;;;;;;;30.87;60.81;96406.56;4937406;29;20557;-63
2023/06/19 11:10:25;;;;;;;6.10;5.70;;;;;;;30.99;57.53;96418.06;4937610;29;20207;-62
2023/06/19 11:12:54;;;;;;;5.18;4.78;;;;;;;31.06;52.16;96399.47;4949248;29;20329;-62
2023/06/19 11:15:21;;;;;;;5.45;5.15;;;;;;;30.61;47.26;96409.34;4937016;29;20214;-63
2023/06/19 11:17:49;;;;;;;5.00;4.60;;;;;;;30.69;49.92;96407.16;4933436;29;20211;-61
2023/06/19 11:20:16;;;;;;;5.32;5.03;;;;;;;30.61;48.63;96403.06;4937215;29;20282;-62
2023/06/19 11:22:42;;;;;;;5.45;4.68;;;;;;;30.55;46.15;96407.75;4937223;29;20238;-62
2023/06/19 11:25:11;;;;;;;6.07;5.13;;;;;;;30.51;46.17;96403.91;4937048;29;20631;-62
2023/06/19 11:27:40;;;;;;;5.07;4.78;;;;;;;30.31;47.27;96403.09;4950353;29;20293;-62
2023/06/19 11:30:08;;;;;;;5.70;5.30;;;;;;;30.28;48.15;96399.00;4939643;29;20211;-61